Terminal Aerodrome Forecast
Issued by NWS Raleigh/Durham, NC

Home | Current Version | Previous Version | Text Only | Print | Product List | Glossary On
Versions: 1 2 3 4 5 6 7 8 9 10 11 12 13 14 15 16 17 18 19 20 21 22 23 24 25 26 27 28 29 30 31 32 33 34 35 36 37 38 39 40 41 42 43
000
FTUS42 KRAH 290537
TAFGSO
TAF
KGSO 290537Z 2906/3006 35006KT 2SM BR SCT012 OVC035
      TEMPO 2906/2908 1/2SM FG BKN012
     FM290800 01006KT 4SM -RA BR SCT007 OVC012
     FM291000 05008KT 2SM RA BR SCT002 OVC007=

USA.gov is the U.S. government's official web portal to all federal, state and local government web resources and services.